sensor_id;sensor_type;location;lat;lon;timestamp;pressure;altitude;pressure_sealevel;temperature;humidity
77279;BME280;66332;50.436;15.378;2023-02-27T05:02:00;99056.94;;;-3.25;75.72
77279;BME280;66332;50.436;15.378;2023-02-27T05:06:43;99057.28;;;-3.32;75.66
77279;BME280;66332;50.436;15.378;2023-02-27T05:11:30;99061.78;;;-3.18;73.92
77279;BME280;66332;50.436;15.378;2023-02-27T05:16:19;99062.56;;;-3.35;75.24
77279;BME280;66332;50.436;15.378;2023-02-27T05:26:10;99072.56;;;-3.29;74.74
77279;BME280;66332;50.436;15.378;2023-02-27T05:31:17;99073.78;;;-2.65;78.84
77279;BME280;66332;50.436;15.378;2023-02-27T05:36:14;99071.75;;;-2.76;72.18
77279;BME280;66332;50.436;15.378;2023-02-27T05:41:10;99086.16;;;-3.08;72.92
77279;BME280;66332;50.436;15.378;2023-02-27T05:45:52;99088.28;;;-2.99;72.67
77279;BME280;66332;50.436;15.378;2023-02-27T05:50:39;99090.56;;;-3.10;73.42
77279;BME280;66332;50.436;15.378;2023-02-27T05:55:25;99096.97;;;-3.19;73.73
77279;BME280;66332;50.436;15.378;2023-02-27T06:00:13;99092.69;;;-3.01;73.43
77279;BME280;66332;50.436;15.378;2023-02-27T06:04:55;99103.28;;;-3.26;73.80
77279;BME280;66332;50.436;15.378;2023-02-27T06:09:36;99108.84;;;-3.35;74.53
77279;BME280;66332;50.436;15.378;2023-02-27T06:14:17;99114.63;;;-3.49;74.74
77279;BME280;66332;50.436;15.378;2023-02-27T06:18:59;99121.13;;;-3.23;73.86
77279;BME280;66332;50.436;15.378;2023-02-27T06:23:41;99125.31;;;-3.20;73.26
77279;BME280;66332;50.436;15.378;2023-02-27T06:28:22;99126.44;;;-2.90;71.86
77279;BME280;66332;50.436;15.378;2023-02-27T06:33:04;99128.56;;;-2.98;71.56
77279;BME280;66332;50.436;15.378;2023-02-27T06:37:45;99141.00;;;-3.08;72.25
77279;BME280;66332;50.436;15.378;2023-02-27T06:42:26;99151.94;;;-3.40;73.37
77279;BME280;66332;50.436;15.378;2023-02-27T06:47:07;99141.13;;;-3.11;71.53
77279;BME280;66332;50.436;15.378;2023-02-27T06:51:48;99149.91;;;-3.15;71.90
77279;BME280;66332;50.436;15.378;2023-02-27T06:56:29;99152.16;;;-3.07;72.59
77279;BME280;66332;50.436;15.378;2023-02-27T07:01:09;99156.16;;;-3.02;72.73
77279;BME280;66332;50.436;15.378;2023-02-27T07:05:51;99161.94;;;-3.15;73.14
77279;BME280;66332;50.436;15.378;2023-02-27T07:10:32;99163.00;;;-3.19;73.24
77279;BME280;66332;50.436;15.378;2023-02-27T07:15:15;99163.72;;;-2.80;73.06
77279;BME280;66332;50.436;15.378;2023-02-27T07:19:56;99154.41;;;-2.65;72.25
77279;BME280;66332;50.436;15.378;2023-02-27T07:24:37;99157.41;;;-2.38;72.00
77279;BME280;66332;50.436;15.378;2023-02-27T07:29:18;99156.72;;;-2.41;71.70
77279;BME280;66332;50.436;15.378;2023-02-27T07:33:59;99159.97;;;-2.20;70.15
77279;BME280;66332;50.436;15.378;2023-02-27T07:38:39;99160.66;;;-2.17;71.27
77279;BME280;66332;50.436;15.378;2023-02-27T07:43:20;99168.13;;;-1.77;68.33
77279;BME280;66332;50.436;15.378;2023-02-27T07:48:01;99160.94;;;-1.88;67.36
77279;BME280;66332;50.436;15.378;2023-02-27T07:52:43;99162.97;;;-1.77;66.94
77279;BME280;66332;50.436;15.378;2023-02-27T07:57:24;99164.09;;;-1.66;67.61
77279;BME280;66332;50.436;15.378;2023-02-27T08:02:05;99170.34;;;-1.54;66.72
77279;BME280;66332;50.436;15.378;2023-02-27T08:06:46;99167.47;;;-1.32;66.48
77279;BME280;66332;50.436;15.378;2023-02-27T08:11:27;99164.66;;;-1.27;65.58
77279;BME280;66332;50.436;15.378;2023-02-27T08:16:07;99174.00;;;-1.09;64.29
77279;BME280;66332;50.436;15.378;2023-02-27T08:20:48;99176.03;;;-0.52;63.69
77279;BME280;66332;50.436;15.378;2023-02-27T08:25:30;99179.63;;;0.06;62.23
77279;BME280;66332;50.436;15.378;2023-02-27T08:30:11;99181.66;;;0.01;62.55
77279;BME280;66332;50.436;15.378;2023-02-27T08:34:52;99180.03;;;0.71;60.96
77279;BME280;66332;50.436;15.378;2023-02-27T08:39:34;99167.66;;;1.18;56.01
77279;BME280;66332;50.436;15.378;2023-02-27T08:44:14;99176.06;;;1.48;54.58
77279;BME280;66332;50.436;15.378;2023-02-27T08:48:55;99180.53;;;1.46;52.97
77279;BME280;66332;50.436;15.378;2023-02-27T08:53:36;99182.38;;;1.44;52.39
77279;BME280;66332;50.436;15.378;2023-02-27T08:58:17;99187.84;;;2.19;50.16
77279;BME280;66332;50.436;15.378;2023-02-27T09:02:58;99189.28;;;1.98;49.55
77279;BME280;66332;50.436;15.378;2023-02-27T09:07:40;99195.97;;;1.88;50.18
77279;BME280;66332;50.436;15.378;2023-02-27T09:12:21;99203.06;;;1.98;48.47
77279;BME280;66332;50.436;15.378;2023-02-27T09:17:02;99209.28;;;1.56;50.52
77279;BME280;66332;50.436;15.378;2023-02-27T09:21:43;99207.19;;;1.61;50.08
77279;BME280;66332;50.436;15.378;2023-02-27T09:26:24;99217.88;;;1.96;51.94
77279;BME280;66332;50.436;15.378;2023-02-27T09:31:06;99214.13;;;1.88;49.45
77279;BME280;66332;50.436;15.378;2023-02-27T09:35:47;99211.59;;;2.51;48.94
77279;BME280;66332;50.436;15.378;2023-02-27T09:40:30;99203.94;;;2.63;47.37
77279;BME280;66332;50.436;15.378;2023-02-27T09:45:23;99211.47;;;2.91;48.01
77279;BME280;66332;50.436;15.378;2023-02-27T09:50:18;99214.56;;;3.70;44.41
77279;BME280;66332;50.436;15.378;2023-02-27T09:55:01;99217.22;;;3.81;42.15
77279;BME280;66332;50.436;15.378;2023-02-27T10:10:17;99213.59;;;4.53;42.81
77279;BME280;66332;50.436;15.378;2023-02-27T10:15:09;99208.69;;;5.49;39.59
77279;BME280;66332;50.436;15.378;2023-02-27T10:19:52;99210.97;;;5.32;40.51
77279;BME280;66332;50.436;15.378;2023-02-27T10:24:38;99218.53;;;5.35;39.68
77279;BME280;66332;50.436;15.378;2023-02-27T10:29:26;99210.78;;;5.01;41.23
77279;BME280;66332;50.436;15.378;2023-02-27T10:34:12;99207.44;;;4.43;43.16
77279;BME280;66332;50.436;15.378;2023-02-27T10:39:03;99205.22;;;4.03;43.17
77279;BME280;66332;50.436;15.378;2023-02-27T10:43:45;99203.38;;;3.81;42.28
77279;BME280;66332;50.436;15.378;2023-02-27T10:48:25;99202.53;;;2.83;44.61
77279;BME280;66332;50.436;15.378;2023-02-27T10:53:17;99204.84;;;2.49;45.86
77279;BME280;66332;50.436;15.378;2023-02-27T10:57:58;99206.50;;;2.24;46.53
77279;BME280;66332;50.436;15.378;2023-02-27T11:02:42;99209.44;;;2.20;47.27
77279;BME280;66332;50.436;15.378;2023-02-27T11:07:33;99199.44;;;2.01;46.35
77279;BME280;66332;50.436;15.378;2023-02-27T11:12:29;99199.97;;;1.66;47.49
77279;BME280;66332;50.436;15.378;2023-02-27T11:17:24;99202.47;;;1.68;47.73
77279;BME280;66332;50.436;15.378;2023-02-27T11:22:14;99201.22;;;1.73;48.43
77279;BME280;66332;50.436;15.378;2023-02-27T11:27:05;99203.63;;;1.76;50.44
77279;BME280;66332;50.436;15.378;2023-02-27T11:32:01;99210.56;;;1.49;54.80
77279;BME280;66332;50.436;15.378;2023-02-27T11:36:45;99217.09;;;0.86;57.93
77279;BME280;66332;50.436;15.378;2023-02-27T11:41:33;99232.16;;;0.65;59.38
77279;BME280;66332;50.436;15.378;2023-02-27T11:46:22;99228.25;;;0.58;60.30
77279;BME280;66332;50.436;15.378;2023-02-27T11:55:53;99230.16;;;0.70;58.83
77279;BME280;66332;50.436;15.378;2023-02-27T12:00:39;99226.19;;;1.34;78.52
77279;BME280;66332;50.436;15.378;2023-02-27T12:05:42;99236.06;;;0.86;60.74
77279;BME280;66332;50.436;15.378;2023-02-27T12:10:24;99231.50;;;0.90;60.71
77279;BME280;66332;50.436;15.378;2023-02-27T12:20:21;99231.59;;;1.03;59.99
77279;BME280;66332;50.436;15.378;2023-02-27T12:25:09;99240.38;;;1.00;59.86
77279;BME280;66332;50.436;15.378;2023-02-27T12:30:25;99229.81;;;1.03;59.93
77279;BME280;66332;50.436;15.378;2023-02-27T12:40:02;99235.13;;;1.02;60.91
77279;BME280;66332;50.436;15.378;2023-02-27T12:45:35;99233.97;;;1.20;62.04
77279;BME280;66332;50.436;15.378;2023-02-27T12:50:16;99233.88;;;1.22;61.52
77279;BME280;66332;50.436;15.378;2023-02-27T12:55:31;99223.00;;;1.71;60.24
77279;BME280;66332;50.436;15.378;2023-02-27T13:01:01;99226.91;;;1.91;59.82
77279;BME280;66332;50.436;15.378;2023-02-27T13:05:35;99228.09;;;1.72;57.89
77279;BME280;66332;50.436;15.378;2023-02-27T13:10:33;99226.81;;;1.92;56.85
77279;BME280;66332;50.436;15.378;2023-02-27T13:15:22;99224.59;;;2.90;55.09
77279;BME280;66332;50.436;15.378;2023-02-27T13:24:54;99222.50;;;3.80;50.57
77279;BME280;66332;50.436;15.378;2023-02-27T13:29:39;99216.50;;;4.26;50.39
77279;BME280;66332;50.436;15.378;2023-02-27T13:34:36;99221.16;;;3.98;48.28
77279;BME280;66332;50.436;15.378;2023-02-27T13:39:55;99217.59;;;3.40;48.26
77279;BME280;66332;50.436;15.378;2023-02-27T13:44:38;99219.84;;;3.20;49.48
77279;BME280;66332;50.436;15.378;2023-02-27T13:49:24;99223.84;;;2.88;50.06
77279;BME280;66332;50.436;15.378;2023-02-27T13:58:47;99210.88;;;2.24;49.41
77279;BME280;66332;50.436;15.378;2023-02-27T14:03:29;99214.50;;;2.21;49.75
77279;BME280;66332;50.436;15.378;2023-02-27T14:08:25;99229.22;;;2.08;49.42
77279;BME280;66332;50.436;15.378;2023-02-27T14:18:52;99232.44;;;1.45;56.12
77279;BME280;66332;50.436;15.378;2023-02-27T14:23:34;99242.44;;;0.81;56.04
77279;BME280;66332;50.436;15.378;2023-02-27T14:28:18;99246.13;;;0.62;57.76
77279;BME280;66332;50.436;15.378;2023-02-27T14:33:55;99238.97;;;0.52;56.17
77279;BME280;66332;50.436;15.378;2023-02-27T14:38:14;99248.09;;;0.73;56.48
77279;BME280;66332;50.436;15.378;2023-02-27T14:43:07;99250.56;;;0.89;58.54
77279;BME280;66332;50.436;15.378;2023-02-27T14:47:51;99252.03;;;0.64;57.80
77279;BME280;66332;50.436;15.378;2023-02-27T14:52:40;99254.63;;;0.64;56.22
77279;BME280;66332;50.436;15.378;2023-02-27T14:57:23;99254.34;;;0.83;55.54
77279;BME280;66332;50.436;15.378;2023-02-27T15:02:15;99262.84;;;0.71;54.80
77279;BME280;66332;50.436;15.378;2023-02-27T15:06:58;99264.16;;;1.07;55.56
77279;BME280;66332;50.436;15.378;2023-02-27T15:11:40;99264.09;;;1.77;53.05
77279;BME280;66332;50.436;15.378;2023-02-27T15:16:36;99256.88;;;2.35;50.48
77279;BME280;66332;50.436;15.378;2023-02-27T15:21:19;99256.78;;;2.87;48.91
77279;BME280;66332;50.436;15.378;2023-02-27T15:26:00;99275.13;;;3.35;48.17
77279;BME280;66332;50.436;15.378;2023-02-27T15:30:47;99269.75;;;3.50;48.51
77279;BME280;66332;50.436;15.378;2023-02-27T15:35:35;99256.75;;;3.13;49.47
77279;BME280;66332;50.436;15.378;2023-02-27T15:40:28;99252.84;;;2.56;49.42
77279;BME280;66332;50.436;15.378;2023-02-27T15:45:16;99270.38;;;3.04;47.96
77279;BME280;66332;50.436;15.378;2023-02-27T15:54:53;99256.19;;;3.33;47.19
77279;BME280;66332;50.436;15.378;2023-02-27T15:59:40;99266.56;;;2.84;49.25
77279;BME280;66332;50.436;15.378;2023-02-27T16:04:24;99271.28;;;1.59;52.29
77279;BME280;66332;50.436;15.378;2023-02-27T16:09:29;99267.31;;;0.98;54.12
77279;BME280;66332;50.436;15.378;2023-02-27T16:14:39;99296.69;;;0.68;55.05
77279;BME280;66332;50.436;15.378;2023-02-27T16:19:25;99307.81;;;0.40;55.58
77279;BME280;66332;50.436;15.378;2023-02-27T16:24:20;99312.34;;;0.20;56.87
77279;BME280;66332;50.436;15.378;2023-02-27T16:29:19;99316.75;;;0.04;57.31
77279;BME280;66332;50.436;15.378;2023-02-27T16:34:29;99317.22;;;0.11;57.97
77279;BME280;66332;50.436;15.378;2023-02-27T16:39:13;99311.06;;;0.13;58.57
77279;BME280;66332;50.436;15.378;2023-02-27T16:43:55;99331.13;;;0.24;59.53
77279;BME280;66332;50.436;15.378;2023-02-27T16:48:36;99302.91;;;-0.11;59.24
77279;BME280;66332;50.436;15.378;2023-02-27T16:53:17;99338.97;;;0.22;60.63
77279;BME280;66332;50.436;15.378;2023-02-27T16:57:58;99332.31;;;0.03;61.88
77279;BME280;66332;50.436;15.378;2023-02-27T17:02:39;99354.88;;;0.01;61.68
77279;BME280;66332;50.436;15.378;2023-02-27T17:07:20;99349.59;;;0.02;62.20
77279;BME280;66332;50.436;15.378;2023-02-27T17:12:01;99342.84;;;0.15;60.84
77279;BME280;66332;50.436;15.378;2023-02-27T17:16:42;99367.00;;;0.14;60.69
77279;BME280;66332;50.436;15.378;2023-02-27T17:21:22;99365.59;;;0.25;60.17
77279;BME280;66332;50.436;15.378;2023-02-27T17:26:03;99359.84;;;0.19;60.96
77279;BME280;66332;50.436;15.378;2023-02-27T17:30:45;99362.66;;;0.15;60.95
77279;BME280;66332;50.436;15.378;2023-02-27T17:35:27;99356.16;;;0.23;60.27
77279;BME280;66332;50.436;15.378;2023-02-27T17:40:10;99356.91;;;0.26;60.71
77279;BME280;66332;50.436;15.378;2023-02-27T17:44:51;99353.56;;;0.23;59.76
77279;BME280;66332;50.436;15.378;2023-02-27T17:49:33;99367.16;;;0.43;59.74
77279;BME280;66332;50.436;15.378;2023-02-27T17:54:14;99364.50;;;0.29;59.89
77279;BME280;66332;50.436;15.378;2023-02-27T17:58:55;99346.78;;;0.07;60.25
77279;BME280;66332;50.436;15.378;2023-02-27T18:03:36;99360.84;;;0.17;60.36
77279;BME280;66332;50.436;15.378;2023-02-27T18:08:18;99357.66;;;0.12;60.86
77279;BME280;66332;50.436;15.378;2023-02-27T18:12:59;99364.44;;;0.14;61.86
77279;BME280;66332;50.436;15.378;2023-02-27T18:17:42;99361.94;;;0.13;61.92
77279;BME280;66332;50.436;15.378;2023-02-27T18:22:23;99374.69;;;0.16;62.05
77279;BME280;66332;50.436;15.378;2023-02-27T18:27:04;99376.00;;;0.23;64.32
77279;BME280;66332;50.436;15.378;2023-02-27T18:31:45;99367.50;;;0.21;65.42
77279;BME280;66332;50.436;15.378;2023-02-27T18:36:30;99360.53;;;0.07;63.01
77279;BME280;66332;50.436;15.378;2023-02-27T18:41:11;99373.53;;;0.06;63.05
77279;BME280;66332;50.436;15.378;2023-02-27T18:45:53;99400.72;;;0.13;62.97
77279;BME280;66332;50.436;15.378;2023-02-27T18:50:34;99388.72;;;-0.20;68.58
77279;BME280;66332;50.436;15.378;2023-02-27T18:55:18;99385.38;;;-0.22;63.89
77279;BME280;66332;50.436;15.378;2023-02-27T18:59:59;99401.13;;;-0.27;64.48
77279;BME280;66332;50.436;15.378;2023-02-27T19:04:44;99379.44;;;-0.40;64.42
77279;BME280;66332;50.436;15.378;2023-02-27T19:09:25;99404.63;;;-0.28;63.52
77279;BME280;66332;50.436;15.378;2023-02-27T19:14:13;99423.19;;;-0.37;64.05
77279;BME280;66332;50.436;15.378;2023-02-27T19:19:00;99419.53;;;-0.49;64.06
77279;BME280;66332;50.436;15.378;2023-02-27T19:23:41;99380.84;;;-0.50;64.19
77279;BME280;66332;50.436;15.378;2023-02-27T19:28:26;99371.19;;;-0.47;62.07
77279;BME280;66332;50.436;15.378;2023-02-27T19:33:08;99411.22;;;-0.22;62.95
77279;BME280;66332;50.436;15.378;2023-02-27T19:37:49;99431.88;;;-0.38;62.01
77279;BME280;66332;50.436;15.378;2023-02-27T19:42:36;99418.44;;;-0.44;63.63
77279;BME280;66332;50.436;15.378;2023-02-27T19:47:18;99437.34;;;-0.44;65.43
77279;BME280;66332;50.436;15.378;2023-02-27T19:51:59;99439.03;;;-0.43;64.91
77279;BME280;66332;50.436;15.378;2023-02-27T19:56:41;99437.34;;;-0.44;65.61
77279;BME280;66332;50.436;15.378;2023-02-27T20:01:28;99444.81;;;-0.55;67.42
77279;BME280;66332;50.436;15.378;2023-02-27T20:06:18;99430.22;;;-0.72;67.65
77279;BME280;66332;50.436;15.378;2023-02-27T20:11:03;99439.25;;;-0.63;66.76
77279;BME280;66332;50.436;15.378;2023-02-27T20:15:57;99431.25;;;-0.59;67.56
77279;BME280;66332;50.436;15.378;2023-02-27T20:20:38;99452.06;;;-0.62;67.56
77279;BME280;66332;50.436;15.378;2023-02-27T20:25:21;99450.25;;;-0.60;67.16
77279;BME280;66332;50.436;15.378;2023-02-27T20:30:03;99453.75;;;-0.61;67.89
77279;BME280;66332;50.436;15.378;2023-02-27T20:34:44;99456.63;;;-0.67;67.59
77279;BME280;66332;50.436;15.378;2023-02-27T20:39:25;99454.34;;;-0.73;68.53
77279;BME280;66332;50.436;15.378;2023-02-27T20:44:08;99461.88;;;-0.68;67.98
77279;BME280;66332;50.436;15.378;2023-02-27T20:48:49;99471.44;;;-0.71;67.64
77279;BME280;66332;50.436;15.378;2023-02-27T20:53:32;99430.38;;;-0.93;68.50
77279;BME280;66332;50.436;15.378;2023-02-27T20:58:14;99460.78;;;-0.64;68.35
77279;BME280;66332;50.436;15.378;2023-02-27T21:02:55;99468.31;;;-0.60;66.75
77279;BME280;66332;50.436;15.378;2023-02-27T21:07:40;99465.97;;;-0.64;66.98
77279;BME280;66332;50.436;15.378;2023-02-27T21:12:21;99469.00;;;-0.74;69.08
77279;BME280;66332;50.436;15.378;2023-02-27T21:17:03;99471.38;;;-0.69;66.96
77279;BME280;66332;50.436;15.378;2023-02-27T21:21:44;99467.56;;;-0.79;68.68
77279;BME280;66332;50.436;15.378;2023-02-27T21:26:33;99465.22;;;-0.66;67.37
77279;BME280;66332;50.436;15.378;2023-02-27T21:31:15;99443.06;;;-0.88;67.80
77279;BME280;66332;50.436;15.378;2023-02-27T21:35:56;99472.25;;;-0.70;68.21
77279;BME280;66332;50.436;15.378;2023-02-27T21:40:43;99457.63;;;-0.87;68.58
77279;BME280;66332;50.436;15.378;2023-02-27T21:45:24;99469.25;;;-0.78;68.77
77279;BME280;66332;50.436;15.378;2023-02-27T21:50:06;99478.25;;;-0.52;68.03
77279;BME280;66332;50.436;15.378;2023-02-27T21:54:53;99471.97;;;-0.64;68.25
77279;BME280;66332;50.436;15.378;2023-02-27T21:59:35;99475.78;;;-0.71;68.43
77279;BME280;66332;50.436;15.378;2023-02-27T22:04:18;99471.69;;;-0.75;69.81
77279;BME280;66332;50.436;15.378;2023-02-27T22:09:02;99476.75;;;-0.74;70.41
77279;BME280;66332;50.436;15.378;2023-02-27T22:13:43;99467.25;;;-0.73;67.89
77279;BME280;66332;50.436;15.378;2023-02-27T22:18:25;99473.75;;;-0.82;69.03
77279;BME280;66332;50.436;15.378;2023-02-27T22:23:06;99472.34;;;-0.89;69.50
77279;BME280;66332;50.436;15.378;2023-02-27T22:27:48;99469.56;;;-0.84;70.11
77279;BME280;66332;50.436;15.378;2023-02-27T22:32:28;99460.38;;;-0.90;70.30
77279;BME280;66332;50.436;15.378;2023-02-27T22:37:09;99438.81;;;-1.06;69.95
77279;BME280;66332;50.436;15.378;2023-02-27T22:41:50;99477.53;;;-0.89;69.80
77279;BME280;66332;50.436;15.378;2023-02-27T22:46:40;99468.78;;;-1.04;69.74
77279;BME280;66332;50.436;15.378;2023-02-27T22:51:23;99474.19;;;-0.91;69.85
77279;BME280;66332;50.436;15.378;2023-02-27T23:00:49;99472.13;;;-1.02;69.85
77279;BME280;66332;50.436;15.378;2023-02-27T23:05:30;99483.22;;;-1.00;70.75
77279;BME280;66332;50.436;15.378;2023-02-27T23:10:11;99478.38;;;-1.06;69.39
77279;BME280;66332;50.436;15.378;2023-02-27T23:14:52;99475.31;;;-1.14;69.21
77279;BME280;66332;50.436;15.378;2023-02-27T23:19:32;99478.72;;;-1.13;68.95
77279;BME280;66332;50.436;15.378;2023-02-27T23:24:16;99472.94;;;-1.36;69.92
77279;BME280;66332;50.436;15.378;2023-02-27T23:28:57;99484.78;;;-1.32;69.20
77279;BME280;66332;50.436;15.378;2023-02-27T23:33:38;99484.00;;;-1.34;69.96
77279;BME280;66332;50.436;15.378;2023-02-27T23:38:19;99482.72;;;-1.43;69.58
77279;BME280;66332;50.436;15.378;2023-02-27T23:43:00;99481.31;;;-1.50;69.75
77279;BME280;66332;50.436;15.378;2023-02-27T23:48:00;99465.13;;;-1.52;69.66
77279;BME280;66332;50.436;15.378;2023-02-27T23:52:41;99469.50;;;-1.54;70.32
77279;BME280;66332;50.436;15.378;2023-02-27T23:57:22;99468.22;;;-1.45;69.36
